Time;durP1;ratioP1;P1;durP2;ratioP2;P2;SDS_P1;SDS_P2;PMS_P1;PMS_P2;Temp;Humidity;BMP_temperature;BMP_pressure;BME280_temperature;BME280_humidity;BME280_pressure;Samples;Min_cycle;Max_cycle;Signal;HPM_P1;HPM_P2
2023/01/25 00:02:18;;;;;;;113.85;55.15;;;2.80;99.90;;;;;;5117368;28;20384;-58
2023/01/25 00:04:44;;;;;;;108.10;54.58;;;2.70;99.90;;;;;;5117493;28;20098;-58
2023/01/25 00:07:10;;;;;;;102.65;52.80;;;2.80;99.90;;;;;;5117392;28;20027;-58
2023/01/25 00:09:36;;;;;;;88.05;47.03;;;2.70;99.90;;;;;;5117215;28;20039;-58
2023/01/25 00:12:02;;;;;;;90.80;48.80;;;2.90;99.90;;;;;;5117291;28;20020;-58
2023/01/25 00:14:28;;;;;;;98.32;51.05;;;2.90;99.90;;;;;;5116251;28;20027;-58
2023/01/25 00:16:54;;;;;;;87.22;46.10;;;2.90;99.90;;;;;;5116941;28;20031;-58
2023/01/25 00:19:20;;;;;;;86.30;48.00;;;2.90;99.90;;;;;;5117226;28;20355;-58
2023/01/25 00:21:46;;;;;;;86.90;47.90;;;2.80;99.90;;;;;;5117168;28;20038;-58
2023/01/25 00:24:13;;;;;;;90.88;47.17;;;2.80;99.90;;;;;;5117002;28;20067;-58
2023/01/25 00:26:39;;;;;;;84.75;45.30;;;2.90;99.90;;;;;;5116980;28;20073;-58
2023/01/25 00:29:11;;;;;;;88.50;47.22;;;3.00;99.90;;;;;;5115393;28;20469;-58
2023/01/25 00:31:54;;;;;;;91.45;47.85;;;3.00;99.90;;;;;;5117127;28;20024;-58
2023/01/25 00:34:23;;;;;;;91.25;46.88;;;2.90;99.90;;;;;;5115591;28;20054;-58
2023/01/25 00:37:00;;;;;;;101.28;48.42;;;2.80;99.90;;;;;;5116793;28;20672;-58
2023/01/25 00:39:26;;;;;;;84.95;46.95;;;2.80;99.90;;;;;;5116681;28;20028;-58
2023/01/25 00:41:53;;;;;;;91.65;48.92;;;2.80;99.90;;;;;;5115359;28;20477;-58
2023/01/25 00:44:19;;;;;;;86.88;46.00;;;2.80;99.90;;;;;;5116726;28;20023;-58
2023/01/25 00:46:46;;;;;;;108.63;54.80;;;2.80;99.90;;;;;;5116584;28;20031;-58
2023/01/25 00:49:21;;;;;;;97.30;49.63;;;2.90;99.90;;;;;;5116684;28;20055;-58
2023/01/25 00:51:48;;;;;;;146.40;65.30;;;3.00;99.90;;;;;;5116439;28;20027;-58
2023/01/25 00:54:14;;;;;;;150.52;68.95;;;3.00;99.90;;;;;;5114928;28;20048;-58
2023/01/25 00:56:40;;;;;;;204.77;83.97;;;3.20;99.90;;;;;;5115407;28;20490;-58
2023/01/25 00:59:06;;;;;;;215.10;85.35;;;3.20;99.90;;;;;;5115135;28;20418;-58
2023/01/25 01:01:33;;;;;;;231.10;92.53;;;3.20;99.90;;;;;;5114601;28;20044;-58
2023/01/25 01:03:59;;;;;;;233.30;92.47;;;3.30;99.90;;;;;;5116100;28;20038;-58
2023/01/25 01:06:25;;;;;;;243.15;92.72;;;3.30;99.90;;;;;;5116116;28;20035;-58
2023/01/25 01:08:52;;;;;;;234.52;92.35;;;3.20;99.90;;;;;;5116024;28;20066;-58
2023/01/25 01:11:18;;;;;;;244.90;93.15;;;3.20;99.90;;;;;;5116122;28;20058;-58
2023/01/25 01:13:44;;;;;;;251.13;92.93;;;3.10;99.90;;;;;;5115888;28;20031;-58
2023/01/25 01:16:11;;;;;;;232.55;89.43;;;3.00;99.90;;;;;;5116028;28;20034;-58
2023/01/25 01:18:44;;;;;;;240.75;92.65;;;3.10;99.90;;;;;;5115952;28;20526;-58
2023/01/25 01:21:11;;;;;;;242.98;95.95;;;3.00;99.90;;;;;;5114636;28;20115;-58
2023/01/25 01:23:38;;;;;;;249.40;97.93;;;3.10;99.90;;;;;;5114521;28;20031;-58
2023/01/25 01:26:06;;;;;;;262.23;100.57;;;3.00;99.90;;;;;;5115835;28;20028;-58
2023/01/25 01:28:34;;;;;;;254.98;98.45;;;3.00;99.90;;;;;;5115600;28;20495;-58
2023/01/25 01:31:01;;;;;;;259.77;97.20;;;3.10;99.90;;;;;;5115644;28;20031;-58
2023/01/25 01:33:30;;;;;;;262.02;98.35;;;3.10;99.90;;;;;;5114480;28;20552;-58
2023/01/25 01:35:57;;;;;;;259.98;98.10;;;3.00;99.90;;;;;;5114155;28;20110;-58
2023/01/25 01:38:23;;;;;;;269.38;97.72;;;3.10;99.90;;;;;;5115617;28;20385;-58
2023/01/25 01:40:50;;;;;;;253.13;92.90;;;2.90;99.90;;;;;;5115652;28;20092;-58
2023/01/25 01:43:21;;;;;;;256.67;94.53;;;2.80;99.90;;;;;;5114178;28;20034;-58
2023/01/25 01:45:48;;;;;;;269.38;95.13;;;2.90;99.90;;;;;;5114290;28;20114;-58
2023/01/25 01:48:37;;;;;;;234.85;89.53;;;2.90;99.90;;;;;;5114190;28;20039;-58
2023/01/25 01:51:26;;;;;;;274.42;96.03;;;2.90;99.90;;;;;;5115318;28;20495;-58
2023/01/25 01:54:11;;;;;;;259.52;89.95;;;2.80;99.90;;;;;;5113980;28;20023;-58
2023/01/25 01:56:54;;;;;;;263.60;92.18;;;2.90;99.90;;;;;;5115193;28;20026;-58
2023/01/25 01:59:23;;;;;;;235.43;84.53;;;2.80;99.90;;;;;;5113974;28;20038;-58
2023/01/25 02:01:49;;;;;;;250.82;88.88;;;3.00;99.90;;;;;;5113917;28;20050;-58
2023/01/25 02:04:18;;;;;;;254.05;91.40;;;3.00;99.90;;;;;;5114004;28;20104;-58
2023/01/25 02:07:12;;;;;;;230.63;86.00;;;3.10;99.90;;;;;;5115174;28;20096;-58
2023/01/25 02:09:40;;;;;;;241.98;87.53;;;3.10;99.90;;;;;;5106597;28;20086;-58
2023/01/25 02:12:08;;;;;;;232.20;87.07;;;3.10;99.90;;;;;;5113894;28;20038;-58
2023/01/25 02:14:36;;;;;;;249.88;86.97;;;3.10;99.90;;;;;;5113818;28;20178;-58
2023/01/25 02:17:03;;;;;;;250.95;88.55;;;3.10;99.90;;;;;;5113674;28;20031;-58
2023/01/25 02:19:47;;;;;;;260.23;91.05;;;3.00;99.90;;;;;;5113752;28;20048;-58
2023/01/25 02:22:19;;;;;;;243.02;87.95;;;3.00;99.90;;;;;;5113870;28;20051;-58
2023/01/25 02:25:00;;;;;;;276.35;93.35;;;3.00;99.90;;;;;;5115088;28;20465;-58
2023/01/25 02:27:26;;;;;;;250.75;90.30;;;3.00;99.90;;;;;;5115040;28;20024;-58
2023/01/25 02:29:53;;;;;;;236.38;91.22;;;2.90;99.90;;;;;;5113542;28;20035;-58
2023/01/25 02:32:21;;;;;;;229.82;91.55;;;2.90;99.90;;;;;;5115087;28;20024;-58
2023/01/25 02:34:47;;;;;;;198.13;83.45;;;2.80;99.90;;;;;;5115115;28;20023;-58
2023/01/25 02:37:14;;;;;;;173.20;76.53;;;3.00;99.90;;;;;;5116221;28;20020;-58
2023/01/25 02:39:41;;;;;;;178.55;80.32;;;3.00;99.90;;;;;;5118997;28;20032;-58
2023/01/25 02:42:08;;;;;;;165.48;74.72;;;3.10;99.90;;;;;;5117768;28;20031;-58
2023/01/25 02:44:34;;;;;;;201.50;79.80;;;3.10;99.90;;;;;;5117663;28;20027;-58
2023/01/25 02:47:02;;;;;;;201.02;78.93;;;3.00;99.90;;;;;;5117591;28;20495;-58
2023/01/25 02:49:29;;;;;;;210.48;83.63;;;3.00;99.90;;;;;;5117600;28;20134;-58
2023/01/25 02:51:56;;;;;;;220.85;82.95;;;2.80;99.90;;;;;;5117581;28;20023;-58
2023/01/25 02:54:25;;;;;;;214.52;81.55;;;2.80;99.90;;;;;;5117390;28;20025;-58
2023/01/25 02:56:51;;;;;;;214.68;81.53;;;2.90;99.90;;;;;;5117380;28;20027;-58
2023/01/25 02:59:19;;;;;;;208.98;84.38;;;2.90;99.90;;;;;;5117296;28;20030;-58
2023/01/25 03:01:50;;;;;;;;;;;2.90;99.90;;;;;;5117690;28;20043;-58
2023/01/25 03:04:16;;;;;;;201.52;81.97;;;2.80;99.90;;;;;;5117305;28;19957;-58
2023/01/25 03:06:42;;;;;;;198.25;80.57;;;3.00;99.90;;;;;;5117349;28;20039;-58
2023/01/25 03:09:10;;;;;;;182.65;74.68;;;3.10;99.90;;;;;;5117251;28;20051;-58
2023/01/25 03:11:39;;;;;;;168.75;72.32;;;3.00;99.90;;;;;;5117035;28;20030;-58
2023/01/25 03:14:05;;;;;;;170.93;75.40;;;3.00;99.90;;;;;;5117064;28;20031;-58
2023/01/25 03:16:31;;;;;;;160.07;73.22;;;2.80;99.90;;;;;;5116934;28;20123;-58
2023/01/25 03:18:58;;;;;;;155.45;69.78;;;2.80;99.90;;;;;;5116924;28;20032;-58
2023/01/25 03:21:24;;;;;;;153.45;70.30;;;2.80;99.90;;;;;;5116766;28;20468;-58
2023/01/25 03:23:56;;;;;;;154.32;68.85;;;2.80;99.90;;;;;;5118368;28;20055;-58
2023/01/25 03:26:26;;;;;;;139.30;67.25;;;2.80;99.90;;;;;;5116748;28;20027;-58
2023/01/25 03:29:10;;;;;;;143.00;67.13;;;2.90;99.90;;;;;;5116621;28;20078;-58
2023/01/25 03:31:39;;;;;;;139.60;65.50;;;2.90;99.90;;;;;;5116787;28;20032;-58
2023/01/25 03:34:05;;;;;;;144.27;68.22;;;2.80;99.90;;;;;;5116653;28;20119;-58
2023/01/25 03:36:36;;;;;;;154.57;71.15;;;2.80;99.90;;;;;;5116614;28;20108;-58
2023/01/25 03:39:02;;;;;;;142.63;66.35;;;2.80;99.90;;;;;;5116603;28;20035;-58
2023/01/25 03:41:29;;;;;;;129.23;62.40;;;2.80;99.90;;;;;;5116487;28;20030;-58
2023/01/25 03:43:58;;;;;;;137.63;64.00;;;2.90;99.90;;;;;;5117783;28;20055;-58
2023/01/25 03:46:24;;;;;;;123.35;59.72;;;2.80;99.90;;;;;;5117777;28;20028;-58
2023/01/25 03:48:50;;;;;;;121.68;60.10;;;2.90;99.90;;;;;;5115397;28;20056;-58
2023/01/25 03:51:16;;;;;;;127.97;61.80;;;2.90;99.90;;;;;;5116336;28;20031;-58
2023/01/25 03:53:42;;;;;;;143.98;68.75;;;3.00;99.90;;;;;;5116226;28;20035;-58
2023/01/25 03:56:19;;;;;;;115.93;56.63;;;2.90;99.90;;;;;;5116252;28;20032;-58
2023/01/25 03:59:06;;;;;;;109.32;54.28;;;3.00;99.90;;;;;;5116370;28;20047;-58
2023/01/25 04:01:33;;;;;;;130.43;60.65;;;3.00;99.90;;;;;;5116038;28;20090;-58
2023/01/25 04:03:59;;;;;;;118.22;55.03;;;2.90;99.90;;;;;;5116012;28;20063;-58
2023/01/25 04:06:25;;;;;;;116.63;57.22;;;3.10;99.90;;;;;;5117409;28;20059;-58
2023/01/25 04:08:51;;;;;;;122.18;58.00;;;3.10;99.90;;;;;;5117413;28;20027;-58
2023/01/25 04:11:18;;;;;;;109.38;56.05;;;3.00;99.90;;;;;;5116005;28;20059;-58
2023/01/25 04:13:46;;;;;;;109.28;55.97;;;2.90;99.90;;;;;;5115846;28;20036;-58
2023/01/25 04:16:14;;;;;;;102.85;52.00;;;3.00;99.90;;;;;;5115910;28;20027;-58
2023/01/25 04:19:01;;;;;;;104.57;55.00;;;2.90;99.90;;;;;;5116613;28;20485;-58
2023/01/25 04:21:28;;;;;;;111.93;57.03;;;2.90;99.90;;;;;;5115850;28;20031;-58
2023/01/25 04:23:55;;;;;;;107.43;54.60;;;3.00;99.90;;;;;;5115736;28;20084;-58
2023/01/25 04:26:21;;;;;;;108.65;54.65;;;3.10;99.90;;;;;;5115701;28;20042;-58
2023/01/25 04:28:53;;;;;;;105.00;52.63;;;3.10;99.90;;;;;;5115462;28;20391;-58
2023/01/25 04:31:19;;;;;;;97.13;49.03;;;3.10;99.90;;;;;;5117051;28;20103;-58
2023/01/25 04:33:45;;;;;;;106.45;53.20;;;3.20;99.90;;;;;;5115464;28;20035;-58
2023/01/25 04:36:13;;;;;;;105.55;53.55;;;3.10;99.90;;;;;;5115626;28;20024;-58
2023/01/25 04:38:41;;;;;;;111.13;55.63;;;3.10;99.90;;;;;;5115563;28;20027;-58
2023/01/25 04:41:08;;;;;;;114.10;54.05;;;3.00;99.90;;;;;;5116768;28;20027;-58
2023/01/25 04:43:34;;;;;;;113.55;56.58;;;3.00;99.90;;;;;;5115384;28;20028;-58
2023/01/25 04:46:05;;;;;;;113.65;57.20;;;3.00;99.90;;;;;;5115418;28;20031;-58
2023/01/25 04:48:32;;;;;;;115.82;58.50;;;3.00;99.90;;;;;;5115400;28;20063;-58
2023/01/25 04:51:01;;;;;;;107.38;54.42;;;3.10;99.90;;;;;;5115302;28;20092;-58
2023/01/25 04:53:27;;;;;;;114.65;54.13;;;3.20;99.90;;;;;;5115164;28;20031;-58
2023/01/25 04:55:55;;;;;;;115.13;56.30;;;3.10;99.90;;;;;;5115047;28;20027;-58
2023/01/25 04:58:23;;;;;;;122.75;60.38;;;3.10;99.90;;;;;;5115124;28;20024;-58
2023/01/25 05:00:51;;;;;;;118.90;57.67;;;3.10;99.90;;;;;;5114553;28;20058;-58
2023/01/25 05:03:17;;;;;;;121.50;57.63;;;3.00;99.90;;;;;;5115079;28;20031;-58
2023/01/25 05:05:47;;;;;;;120.85;59.75;;;3.10;99.90;;;;;;5114945;28;20028;-58
2023/01/25 05:08:16;;;;;;;137.23;61.78;;;3.10;99.90;;;;;;5114911;28;20451;-58
2023/01/25 05:10:43;;;;;;;120.43;55.50;;;3.00;99.90;;;;;;5114796;28;20429;-58
2023/01/25 05:13:24;;;;;;;123.40;57.45;;;3.00;99.90;;;;;;5116112;28;20051;-58
2023/01/25 05:15:58;;;;;;;114.93;55.40;;;3.10;99.90;;;;;;5114757;28;20034;-58
2023/01/25 05:18:24;;;;;;;113.25;56.67;;;3.00;99.90;;;;;;5114578;28;20028;-58
2023/01/25 05:20:56;;;;;;;114.25;57.55;;;3.10;99.90;;;;;;5114596;28;20091;-58
2023/01/25 05:23:24;;;;;;;125.68;63.47;;;3.10;99.90;;;;;;5114531;28;20028;-58
2023/01/25 05:28:36;;;;;;;121.03;56.40;;;3.00;99.90;;;;;;5115520;28;20036;-58
2023/01/25 05:31:14;;;;;;;115.60;56.42;;;2.90;99.90;;;;;;5114302;28;20024;-58
2023/01/25 05:33:41;;;;;;;114.60;55.70;;;3.00;99.90;;;;;;5114301;28;20036;-58
2023/01/25 05:36:07;;;;;;;103.50;51.17;;;3.00;99.90;;;;;;5115867;28;20461;-58
2023/01/25 05:38:36;;;;;;;114.47;54.95;;;3.00;99.90;;;;;;5114285;28;20034;-58
2023/01/25 05:41:02;;;;;;;122.40;61.83;;;2.90;99.90;;;;;;5114096;28;20473;-58
2023/01/25 05:43:28;;;;;;;122.30;56.78;;;2.80;99.90;;;;;;5114189;28;20035;-58
2023/01/25 05:45:54;;;;;;;110.15;53.33;;;2.80;99.90;;;;;;5114111;28;20034;-58
2023/01/25 05:48:20;;;;;;;118.68;57.03;;;2.90;99.90;;;;;;5115411;28;20431;-58
2023/01/25 05:50:47;;;;;;;115.50;55.88;;;2.90;99.90;;;;;;5115519;28;20533;-58
2023/01/25 05:53:17;;;;;;;125.55;58.47;;;2.80;99.90;;;;;;5113906;28;20027;-58
2023/01/25 05:55:44;;;;;;;118.82;58.58;;;2.90;99.90;;;;;;5113896;28;20050;-58
2023/01/25 05:58:14;;;;;;;132.30;63.72;;;2.90;99.90;;;;;;5113903;28;20489;-58
2023/01/25 06:00:40;;;;;;;133.35;64.72;;;2.90;99.90;;;;;;5113776;28;20515;-58
2023/01/25 06:03:07;;;;;;;115.95;58.80;;;2.80;99.90;;;;;;5113914;28;20119;-58
2023/01/25 06:05:35;;;;;;;121.18;55.25;;;2.80;99.90;;;;;;5113911;28;20023;-58
2023/01/25 06:08:01;;;;;;;117.32;53.35;;;2.80;99.90;;;;;;5115094;28;20028;-58
2023/01/25 06:10:57;;;;;;;127.05;59.17;;;2.90;99.90;;;;;;5108148;28;20039;-58
2023/01/25 06:13:23;;;;;;;134.57;61.15;;;2.90;99.90;;;;;;5113191;28;20028;-58
2023/01/25 06:15:54;;;;;;;136.73;61.85;;;3.00;99.90;;;;;;5115126;28;20031;-58
2023/01/25 06:18:38;;;;;;;131.05;58.03;;;3.00;99.90;;;;;;5114993;28;20101;-58
2023/01/25 06:21:30;;;;;;;134.55;62.53;;;2.90;99.90;;;;;;5098425;28;20032;-58
2023/01/25 06:23:56;;;;;;;112.32;55.00;;;2.90;99.90;;;;;;5112066;28;20033;-58
2023/01/25 06:26:22;;;;;;;106.55;51.45;;;2.80;99.90;;;;;;5114221;28;20479;-58
2023/01/25 06:28:48;;;;;;;147.20;68.78;;;2.90;99.90;;;;;;5110841;28;20027;-58
2023/01/25 06:31:16;;;;;;;136.82;65.25;;;3.00;99.90;;;;;;5114933;28;20031;-58
2023/01/25 06:33:46;;;;;;;155.82;79.22;;;3.00;99.90;;;;;;5109003;28;20033;-58
2023/01/25 06:36:14;;;;;;;129.45;67.90;;;3.00;99.90;;;;;;5112792;28;20493;-58
2023/01/25 06:38:41;;;;;;;139.25;69.72;;;3.10;99.90;;;;;;5114643;28;20031;-58
2023/01/25 06:41:10;;;;;;;161.18;77.15;;;3.20;99.90;;;;;;5114608;28;20484;-58
2023/01/25 06:43:36;;;;;;;117.63;59.03;;;3.20;99.90;;;;;;5107579;28;20032;-58
2023/01/25 06:46:05;;;;;;;108.78;54.50;;;3.20;99.90;;;;;;5110777;28;20028;-58
2023/01/25 06:48:31;;;;;;;127.82;63.90;;;3.20;99.90;;;;;;5093958;28;20542;-58
2023/01/25 06:51:00;;;;;;;137.10;68.10;;;3.30;99.90;;;;;;5095976;28;20036;-58
2023/01/25 06:53:28;;;;;;;131.25;62.75;;;3.30;99.90;;;;;;5105020;28;20031;-58
2023/01/25 06:55:59;;;;;;;133.43;64.47;;;3.30;99.90;;;;;;5108381;28;20066;-58
2023/01/25 06:58:27;;;;;;;124.35;59.00;;;3.30;99.90;;;;;;5099661;28;20062;-58
2023/01/25 07:00:53;;;;;;;129.63;61.45;;;3.30;99.90;;;;;;5097746;28;20052;-58
2023/01/25 07:03:19;;;;;;;107.75;55.10;;;3.30;99.90;;;;;;5106641;28;20027;-58
2023/01/25 07:05:45;;;;;;;111.05;55.45;;;3.40;99.90;;;;;;5103767;28;20024;-58
2023/01/25 07:08:11;;;;;;;133.00;68.88;;;3.40;99.90;;;;;;5096553;28;20465;-58
2023/01/25 07:10:37;;;;;;;126.97;64.07;;;3.50;99.90;;;;;;5104448;28;20054;-58
2023/01/25 07:13:03;;;;;;;122.68;59.55;;;3.60;99.90;;;;;;5104070;28;20032;-58
2023/01/25 07:15:28;;;;;;;132.07;66.18;;;3.50;99.90;;;;;;5104305;28;20089;-58
2023/01/25 07:17:54;;;;;;;121.70;58.67;;;3.50;99.90;;;;;;5098608;28;20030;-58
2023/01/25 07:20:20;;;;;;;129.48;62.00;;;3.50;99.90;;;;;;5101265;28;20031;-58
2023/01/25 07:22:46;;;;;;;117.15;58.25;;;3.60;99.90;;;;;;5110329;28;20058;-58
2023/01/25 07:25:13;;;;;;;128.30;60.83;;;3.60;99.90;;;;;;5113576;28;20020;-58
2023/01/25 07:27:39;;;;;;;129.50;64.68;;;3.50;99.90;;;;;;5106134;28;20390;-58
2023/01/25 07:30:05;;;;;;;144.70;76.45;;;3.40;99.90;;;;;;5107630;28;20024;-58
2023/01/25 07:32:32;;;;;;;143.23;78.30;;;3.40;99.90;;;;;;5117625;28;20032;-58
2023/01/25 07:34:58;;;;;;;129.57;64.07;;;3.30;99.90;;;;;;5117392;28;20171;-58
2023/01/25 07:37:26;;;;;;;111.85;55.08;;;3.30;99.90;;;;;;5114215;27;20011;-58
2023/01/25 07:39:52;;;;;;;102.40;51.78;;;3.20;99.90;;;;;;5112416;27;20036;-58
2023/01/25 07:42:18;;;;;;;103.05;51.40;;;3.20;99.90;;;;;;5100591;28;20496;-58
2023/01/25 07:44:51;;;;;;;103.32;50.65;;;3.20;99.90;;;;;;5100799;28;20028;-58
2023/01/25 07:47:17;;;;;;;108.22;54.75;;;3.20;99.90;;;;;;5112585;28;20122;-58
2023/01/25 07:49:53;;;;;;;106.65;50.80;;;3.20;99.90;;;;;;5112357;28;20034;-58
2023/01/25 07:52:19;;;;;;;101.65;49.65;;;3.30;99.90;;;;;;5110979;28;20085;-58
2023/01/25 07:54:48;;;;;;;108.72;53.45;;;3.20;99.90;;;;;;5107974;28;20028;-58
2023/01/25 07:57:14;;;;;;;95.68;47.75;;;3.10;99.90;;;;;;5117223;28;20023;-58
2023/01/25 07:59:40;;;;;;;96.65;47.95;;;3.20;99.90;;;;;;5117590;28;20119;-58
2023/01/25 08:02:10;;;;;;;101.25;47.97;;;3.40;99.90;;;;;;5117272;28;20081;-58
2023/01/25 08:04:36;;;;;;;102.65;45.03;;;3.60;99.90;;;;;;5117265;28;20042;-58
2023/01/25 08:07:05;;;;;;;100.10;50.42;;;3.60;99.90;;;;;;5117564;28;20036;-58
2023/01/25 08:09:31;;;;;;;100.18;47.13;;;3.60;99.90;;;;;;5117400;28;20038;-58
2023/01/25 08:11:57;;;;;;;96.45;42.90;;;3.70;99.90;;;;;;5116852;28;20393;-58
2023/01/25 08:14:23;;;;;;;87.20;42.42;;;3.70;99.90;;;;;;5117018;28;20054;-58
2023/01/25 08:16:49;;;;;;;86.28;44.97;;;3.80;99.90;;;;;;5115462;28;20075;-58
2023/01/25 08:19:15;;;;;;;85.50;44.05;;;3.60;99.90;;;;;;5116651;28;20063;-58
2023/01/25 08:21:41;;;;;;;74.70;39.30;;;3.60;99.90;;;;;;5116808;28;20066;-58
2023/01/25 08:24:08;;;;;;;80.43;38.75;;;3.50;99.90;;;;;;5116562;28;20102;-58
2023/01/25 08:26:35;;;;;;;71.13;37.30;;;3.70;99.90;;;;;;5116571;28;20432;-58
2023/01/25 08:29:05;;;;;;;71.57;36.63;;;3.80;99.90;;;;;;5116542;28;20426;-58
2023/01/25 08:31:33;;;;;;;70.13;36.00;;;3.70;99.90;;;;;;5115673;28;20047;-58
2023/01/25 08:34:01;;;;;;;70.43;35.92;;;3.70;99.90;;;;;;5108176;28;20110;-58
2023/01/25 08:36:27;;;;;;;87.95;44.05;;;3.70;99.90;;;;;;5116083;28;20027;-58
2023/01/25 08:38:55;;;;;;;88.93;47.92;;;3.80;99.90;;;;;;5116289;28;20102;-58
2023/01/25 08:41:22;;;;;;;70.60;39.88;;;3.80;99.90;;;;;;5107220;28;20024;-58
2023/01/25 08:43:48;;;;;;;76.78;41.42;;;3.80;99.90;;;;;;5114002;28;20434;-58
2023/01/25 08:46:15;;;;;;;72.07;38.10;;;3.70;99.90;;;;;;5115897;28;20380;-58
2023/01/25 08:48:41;;;;;;;56.85;32.00;;;3.70;99.90;;;;;;5116193;28;20031;-58
2023/01/25 08:51:10;;;;;;;61.95;32.22;;;3.80;99.90;;;;;;5109575;28;20036;-58
2023/01/25 08:53:36;;;;;;;65.30;34.78;;;3.70;99.90;;;;;;5108107;28;20028;-58
2023/01/25 08:56:06;;;;;;;67.32;35.47;;;3.70;99.90;;;;;;5106673;28;20066;-58
2023/01/25 08:58:33;;;;;;;67.03;34.78;;;3.70;99.90;;;;;;5105905;28;20355;-58
2023/01/25 09:01:05;;;;;;;58.25;31.98;;;3.80;99.90;;;;;;5107135;28;20075;-58
2023/01/25 09:03:33;;;;;;;76.95;39.70;;;3.90;99.90;;;;;;5095557;28;20039;-58
2023/01/25 09:05:59;;;;;;;60.88;31.55;;;3.80;99.90;;;;;;5106619;28;20034;-58
2023/01/25 09:08:25;;;;;;;49.75;27.50;;;3.90;99.90;;;;;;5109228;28;20031;-58
2023/01/25 09:10:52;;;;;;;72.93;40.08;;;3.80;99.90;;;;;;5106484;28;20044;-58
2023/01/25 09:13:17;;;;;;;48.65;27.83;;;3.90;99.90;;;;;;5101132;28;20036;-58
2023/01/25 09:15:44;;;;;;;47.95;27.50;;;3.80;99.90;;;;;;5095155;28;20028;-58
2023/01/25 09:18:10;;;;;;;46.45;27.33;;;3.70;99.90;;;;;;5102216;28;20075;-58
2023/01/25 09:20:39;;;;;;;50.40;28.48;;;3.90;99.90;;;;;;5115023;28;20026;-58
2023/01/25 09:23:05;;;;;;;44.05;25.42;;;4.00;99.90;;;;;;5115514;28;20420;-58
2023/01/25 09:25:31;;;;;;;47.20;26.80;;;3.90;99.90;;;;;;5110148;28;20106;-58
2023/01/25 09:27:57;;;;;;;39.10;23.27;;;3.80;99.90;;;;;;5095862;28;20105;-58
2023/01/25 09:30:23;;;;;;;43.17;24.23;;;3.90;99.90;;;;;;5108614;28;20031;-58
2023/01/25 09:32:53;;;;;;;36.47;21.90;;;4.00;99.90;;;;;;5112566;28;20453;-58
2023/01/25 09:35:28;;;;;;;37.38;22.13;;;4.00;99.90;;;;;;5101582;28;20118;-58
2023/01/25 09:37:54;;;;;;;43.05;24.42;;;3.90;99.90;;;;;;5115355;28;20023;-58
2023/01/25 09:40:22;;;;;;;37.08;19.85;;;3.90;99.90;;;;;;5115155;28;20055;-58
2023/01/25 09:42:51;;;;;;;38.88;22.38;;;3.90;99.90;;;;;;5114468;28;20084;-58
2023/01/25 09:45:36;;;;;;;41.10;22.85;;;3.90;99.90;;;;;;5115310;28;20470;-58
2023/01/25 09:48:31;;;;;;;38.90;22.10;;;4.00;99.90;;;;;;5114412;28;20027;-58
2023/01/25 09:51:21;;;;;;;35.55;21.02;;;4.00;99.90;;;;;;5115049;28;20093;-58
2023/01/25 09:53:49;;;;;;;39.88;22.45;;;4.00;99.90;;;;;;5114997;28;20039;-58
2023/01/25 09:56:35;;;;;;;37.92;21.70;;;4.00;99.90;;;;;;5115475;28;20081;-58
2023/01/25 09:59:15;;;;;;;36.13;21.50;;;4.00;99.90;;;;;;5115622;28;20031;-58
2023/01/25 10:01:48;;;;;;;39.70;21.17;;;4.20;99.90;;;;;;5115439;28;20052;-58
2023/01/25 10:04:25;;;;;;;40.92;21.55;;;4.30;99.90;;;;;;5115471;28;20397;-58
2023/01/25 10:06:55;;;;;;;46.35;25.73;;;4.10;99.90;;;;;;5115824;28;20083;-58
2023/01/25 10:09:35;;;;;;;50.00;26.02;;;4.20;99.90;;;;;;5114910;28;20031;-58
2023/01/25 10:12:22;;;;;;;45.28;23.92;;;4.20;99.90;;;;;;5114907;28;20034;-58
2023/01/25 10:14:49;;;;;;;41.72;23.33;;;4.20;99.90;;;;;;5114868;28;20040;-58
2023/01/25 10:17:38;;;;;;;30.58;17.98;;;4.30;99.90;;;;;;5114614;28;20031;-58
2023/01/25 10:20:30;;;;;;;31.65;18.42;;;4.10;99.90;;;;;;5115034;28;20072;-58
2023/01/25 10:23:23;;;;;;;32.00;18.50;;;4.10;99.90;;;;;;5114721;28;20027;-58
2023/01/25 10:26:20;;;;;;;35.78;19.85;;;4.10;99.90;;;;;;5114574;28;20035;-58
2023/01/25 10:29:09;;;;;;;81.35;33.13;;;4.00;99.90;;;;;;5114473;28;20019;-58
2023/01/25 10:31:53;;;;;;;90.95;37.10;;;4.20;99.90;;;;;;5114491;28;20027;-58
2023/01/25 10:34:31;;;;;;;138.50;67.13;;;4.20;99.90;;;;;;5114745;28;20048;-58
2023/01/25 10:37:08;;;;;;;65.78;33.85;;;4.20;99.90;;;;;;5114392;28;20374;-58
2023/01/25 10:39:41;;;;;;;60.60;29.73;;;4.30;99.90;;;;;;5114050;28;20098;-58
2023/01/25 10:42:14;;;;;;;81.93;36.05;;;4.20;99.90;;;;;;5114653;28;20030;-58
2023/01/25 10:44:39;;;;;;;72.18;32.55;;;4.30;99.90;;;;;;5114441;28;20028;-58
2023/01/25 10:47:49;;;;;;;88.20;42.25;;;4.30;99.90;;;;;;5114361;28;20028;-58
2023/01/25 10:50:43;;;;;;;99.07;44.90;;;4.20;99.90;;;;;;5031611;28;20128;-58
2023/01/25 10:53:24;;;;;;;105.88;43.90;;;4.20;99.90;;;;;;5031146;28;20042;-58
2023/01/25 10:56:09;;;;;;;;;;;4.10;99.90;;;;;;5031932;28;20049;-58
2023/01/25 10:59:18;;;;;;;78.80;35.60;;;4.00;99.90;;;;;;5033078;28;20426;-58
2023/01/25 11:01:44;;;;;;;61.00;30.75;;;4.10;99.90;;;;;;5025792;28;20087;-58
2023/01/25 11:04:34;;;;;;;59.80;29.08;;;4.20;99.90;;;;;;5035323;28;20612;-58
2023/01/25 11:07:02;;;;;;;78.83;35.67;;;4.10;99.90;;;;;;5035021;28;20128;-58
2023/01/25 11:09:31;;;;;;;71.95;32.40;;;4.20;99.90;;;;;;5035181;28;20140;-58
2023/01/25 11:12:00;;;;;;;68.03;31.75;;;4.20;99.90;;;;;;5035162;28;20044;-58
2023/01/25 11:14:28;;;;;;;63.97;30.80;;;4.20;99.90;;;;;;5034746;28;20053;-58
2023/01/25 11:16:56;;;;;;;91.28;41.42;;;4.20;99.90;;;;;;5034969;28;20061;-58
2023/01/25 11:19:39;;;;;;;84.65;38.25;;;4.20;99.90;;;;;;5034948;28;20041;-58
2023/01/25 11:22:23;;;;;;;72.38;31.67;;;4.20;99.90;;;;;;5116468;28;20036;-58
2023/01/25 11:24:49;;;;;;;62.10;29.33;;;4.20;99.90;;;;;;5117396;28;20500;-58
2023/01/25 11:27:24;;;;;;;66.43;32.00;;;4.20;99.90;;;;;;5117499;28;20102;-58
2023/01/25 11:30:08;;;;;;;65.85;29.90;;;4.30;99.90;;;;;;5117642;27;20028;-58
2023/01/25 11:32:36;;;;;;;54.65;26.42;;;4.30;99.90;;;;;;5118483;28;20028;-58
2023/01/25 11:35:05;;;;;;;70.38;33.70;;;4.30;99.90;;;;;;5110930;28;20038;-58
2023/01/25 11:38:13;;;;;;;58.60;27.75;;;4.30;99.90;;;;;;5107840;28;20451;-58
2023/01/25 11:40:47;;;;;;;48.08;23.75;;;4.30;99.90;;;;;;5117447;28;20084;-58
2023/01/25 11:43:29;;;;;;;45.13;23.05;;;4.30;99.90;;;;;;5117297;28;20035;-58
2023/01/25 11:46:15;;;;;;;45.88;22.23;;;4.20;99.90;;;;;;5112774;28;20067;-58
2023/01/25 11:48:56;;;;;;;45.72;22.67;;;4.30;99.90;;;;;;5098410;28;20124;-58
2023/01/25 11:51:28;;;;;;;40.65;21.85;;;4.20;99.90;;;;;;5097883;28;20055;-58
2023/01/25 11:54:27;;;;;;;49.83;24.23;;;4.20;99.90;;;;;;5114248;28;20038;-58
2023/01/25 11:57:00;;;;;;;61.90;30.85;;;4.30;99.90;;;;;;5117164;28;20020;-58
2023/01/25 11:59:54;;;;;;;51.22;26.85;;;4.30;99.90;;;;;;5117203;28;20081;-58
2023/01/25 12:02:58;;;;;;;41.47;23.67;;;4.30;99.90;;;;;;5111379;28;20044;-58
2023/01/25 12:05:24;;;;;;;43.22;22.42;;;4.30;99.90;;;;;;5116935;28;20386;-58
2023/01/25 12:08:08;;;;;;;51.10;27.30;;;4.20;99.90;;;;;;5117214;28;20028;-58
2023/01/25 12:10:49;;;;;;;47.13;25.17;;;4.20;99.90;;;;;;5116173;27;20500;-58
2023/01/25 12:13:23;;;;;;;54.60;27.45;;;4.10;99.90;;;;;;5116852;28;20038;-58
2023/01/25 12:16:16;;;;;;;56.30;27.92;;;4.20;99.90;;;;;;5117025;28;20027;-58
2023/01/25 12:18:55;;;;;;;49.80;25.75;;;4.20;99.90;;;;;;5116729;28;20032;-58
2023/01/25 12:21:44;;;;;;;49.78;25.92;;;4.20;99.90;;;;;;5116943;28;20407;-58
2023/01/25 12:24:57;;;;;;;55.88;30.08;;;4.20;99.90;;;;;;5116728;28;20055;-58
2023/01/25 12:27:40;;;;;;;48.53;25.48;;;4.10;99.90;;;;;;5116698;27;20082;-58
2023/01/25 12:30:38;;;;;;;61.35;30.65;;;4.10;99.90;;;;;;5115378;28;20027;-58
2023/01/25 12:33:14;;;;;;;50.75;28.05;;;4.10;99.90;;;;;;5109785;27;20444;-58
2023/01/25 12:36:26;;;;;;;53.03;28.50;;;4.10;99.90;;;;;;5116784;28;20034;-58
2023/01/25 12:39:03;;;;;;;52.13;28.73;;;4.10;99.90;;;;;;5083551;28;20114;-58
2023/01/25 12:41:56;;;;;;;54.60;27.15;;;4.30;99.90;;;;;;5116543;27;20035;-58
2023/01/25 12:44:27;;;;;;;57.35;30.58;;;4.20;99.90;;;;;;5116124;28;20094;-58
2023/01/25 12:47:14;;;;;;;71.82;33.83;;;4.10;99.90;;;;;;5116042;28;20042;-58
2023/01/25 12:49:47;;;;;;;54.22;29.98;;;4.20;99.90;;;;;;5106803;28;20462;-58
2023/01/25 12:52:31;;;;;;;55.63;30.30;;;4.10;99.90;;;;;;5103142;28;20035;-58
2023/01/25 12:55:01;;;;;;;54.75;28.65;;;4.20;99.90;;;;;;5106273;28;20027;-58
2023/01/25 12:57:46;;;;;;;62.45;32.72;;;4.10;99.90;;;;;;5109592;28;20105;-58